Thompson, Michigan
Current Conditions -  °F | °C
As of 8:14 PM on Sunday 23 Nov 2014 (Local Time) from KISQ Reporting Station
Moderate Rain Moderate Rain  
Wind Chill: 37°   Ceiling: 300
Heat Index: 41°   Visibility: 0.5mi
Dew Point: 41°   Wind: 6mph
Humidity: 100%   Direction: 120°ESE
Pressure: 29.43"   Gusts: NA
Location:  46.1571°N, 86.3397°W
Report Text: KISQ 240114Z AUTO 12005KT 1/2SM RA OVC003 05/05 A2943 RMK AO2 P0002 T00490049
Loading
Personal Weather Stations






























Interactive Weather Map New forecast layout! Learn more

10-Day Weather Forecast

Advertisements
Track Severe Weather on mobile